createdAt,value
2019-03-04T00:01:11.743Z,2.30
2019-03-04T00:03:42.181Z,2.73
2019-03-04T00:06:12.613Z,2.63
2019-03-04T00:08:44.129Z,2.53
2019-03-04T00:11:14.882Z,2.53
2019-03-04T00:13:45.345Z,2.00
2019-03-04T00:16:15.778Z,2.40
2019-03-04T00:18:46.657Z,2.13
2019-03-04T00:21:17.086Z,2.47
2019-03-04T00:23:47.561Z,2.47
2019-03-04T00:26:17.976Z,2.00
2019-03-04T00:28:48.405Z,2.20
2019-03-04T00:31:18.826Z,2.10
2019-03-04T00:33:49.285Z,2.33
2019-03-04T00:36:19.705Z,2.10
2019-03-04T00:38:50.137Z,2.53
2019-03-04T00:41:20.918Z,2.47
2019-03-04T00:43:51.390Z,2.37
2019-03-04T00:46:21.836Z,2.20
2019-03-04T00:48:52.330Z,2.30
2019-03-04T00:51:23.069Z,2.23
2019-03-04T00:53:53.509Z,2.30
2019-03-04T00:56:24.021Z,2.60
2019-03-04T00:58:54.465Z,2.17
2019-03-04T01:01:25.760Z,2.53
2019-03-04T01:03:56.229Z,2.30
2019-03-04T01:06:26.997Z,2.40
2019-03-04T01:08:57.425Z,2.30
2019-03-04T01:11:27.868Z,2.43
2019-03-04T01:13:58.601Z,2.30
2019-03-04T01:16:29.291Z,2.27
2019-03-04T01:18:59.734Z,2.03
2019-03-04T01:21:30.193Z,2.30
2019-03-04T01:24:00.645Z,2.40
2019-03-04T01:26:31.091Z,2.00
2019-03-04T01:29:01.696Z,2.17
2019-03-04T01:31:32.125Z,2.13
2019-03-04T01:34:02.602Z,2.60
2019-03-04T01:36:33.085Z,2.43
2019-03-04T01:39:05.046Z,2.30
2019-03-04T01:41:35.701Z,2.80
2019-03-04T01:44:06.209Z,2.30
2019-03-04T01:46:37.042Z,2.33
2019-03-04T01:49:07.548Z,2.20
2019-03-04T01:51:38.002Z,2.27
2019-03-04T01:54:08.463Z,2.30
2019-03-04T01:56:39.014Z,2.30
2019-03-04T01:59:09.494Z,2.20
2019-03-04T02:01:40.026Z,2.03
2019-03-04T02:04:10.625Z,2.10
2019-03-04T02:06:41.166Z,1.97
2019-03-04T02:09:11.714Z,2.10
2019-03-04T02:11:43.320Z,2.00
2019-03-04T02:14:13.847Z,1.77
2019-03-04T02:16:44.468Z,1.97
2019-03-04T02:19:15.033Z,1.67
2019-03-04T02:21:45.577Z,2.00
2019-03-04T02:24:19.731Z,1.80
2019-03-04T02:26:50.267Z,1.77
2019-03-04T02:29:20.725Z,2.00
2019-03-04T02:31:51.196Z,1.97
2019-03-04T02:34:21.798Z,1.67
2019-03-04T02:36:52.883Z,1.70
2019-03-04T02:39:23.574Z,1.60
2019-03-04T02:41:54.294Z,1.47
2019-03-04T02:44:24.774Z,1.90
2019-03-04T02:46:55.274Z,1.53
2019-03-04T02:49:25.729Z,1.70
2019-03-04T02:51:56.461Z,1.60
2019-03-04T02:54:27.030Z,1.57
2019-03-04T02:56:57.699Z,1.50
2019-03-04T02:59:28.225Z,1.80
2019-03-04T03:01:58.765Z,1.70
2019-03-04T03:04:29.577Z,1.53
2019-03-04T03:07:00.013Z,1.40
2019-03-04T03:09:30.517Z,1.50
2019-03-04T03:12:01.645Z,1.43
2019-03-04T03:14:32.178Z,1.37
2019-03-04T03:17:02.657Z,1.40
2019-03-04T03:19:33.453Z,1.40
2019-03-04T03:22:03.877Z,1.57
2019-03-04T03:24:34.406Z,1.40
2019-03-04T03:27:05.144Z,1.60
2019-03-04T03:29:35.589Z,1.83
2019-03-04T03:32:06.039Z,1.57
2019-03-04T03:34:36.803Z,1.40
2019-03-04T03:37:07.227Z,1.53
2019-03-04T03:39:37.653Z,1.40
2019-03-04T03:42:08.374Z,1.43
2019-03-04T03:44:38.799Z,1.20
2019-03-04T03:47:09.239Z,1.40
2019-03-04T03:49:39.714Z,1.67
2019-03-04T03:52:10.249Z,1.60
2019-03-04T03:54:41.159Z,1.27
2019-03-04T03:57:11.692Z,1.40
2019-03-04T03:59:42.220Z,1.40
2019-03-04T04:02:13.929Z,1.33
2019-03-04T04:04:44.457Z,1.60
2019-03-04T04:07:14.904Z,1.63
2019-03-04T04:09:45.659Z,1.50
2019-03-04T04:12:16.115Z,1.50
2019-03-04T04:14:46.597Z,1.60
2019-03-04T04:17:17.390Z,1.60
2019-03-04T04:19:47.836Z,1.40
2019-03-04T04:22:18.277Z,1.33
2019-03-04T04:24:48.865Z,1.47
2019-03-04T04:27:20.755Z,1.77
2019-03-04T04:29:51.178Z,1.30
2019-03-04T04:32:21.973Z,1.30
2019-03-04T04:34:52.793Z,1.87
2019-03-04T04:37:23.278Z,1.30
2019-03-04T04:39:54.262Z,1.43
2019-03-04T04:42:24.714Z,1.40
2019-03-04T04:44:55.174Z,1.40
2019-03-04T04:47:25.640Z,1.20
2019-03-04T04:49:56.092Z,1.70
2019-03-04T04:52:26.533Z,1.70
2019-03-04T04:54:57.015Z,1.30
2019-03-04T04:57:27.852Z,1.73
2019-03-04T04:59:58.295Z,1.33
2019-03-04T05:02:29.050Z,1.30
2019-03-04T05:04:59.545Z,1.40
2019-03-04T05:07:31.424Z,1.30
2019-03-04T05:10:01.876Z,1.30
2019-03-04T05:12:35.224Z,1.30
2019-03-04T05:15:07.028Z,1.47
2019-03-04T05:17:39.626Z,1.50
2019-03-04T05:20:15.466Z,1.40
2019-03-04T05:22:46.260Z,1.50
2019-03-04T05:25:17.428Z,1.30
2019-03-04T05:27:47.863Z,1.67
2019-03-04T05:30:19.598Z,1.23
2019-03-04T05:32:50.036Z,1.17
2019-03-04T05:35:20.493Z,1.63
2019-03-04T05:37:50.923Z,1.27
2019-03-04T05:40:21.403Z,1.60
2019-03-04T05:42:51.854Z,1.50
2019-03-04T05:45:22.289Z,1.43
2019-03-04T05:47:52.742Z,1.50
2019-03-04T05:50:23.222Z,1.67
2019-03-04T05:52:53.672Z,1.27
2019-03-04T05:55:24.106Z,1.50
2019-03-04T05:57:54.573Z,1.60
2019-03-04T06:00:28.628Z,1.53
2019-03-04T06:02:59.133Z,1.40
2019-03-04T06:05:30.759Z,1.60
2019-03-04T06:08:03.145Z,1.57
2019-03-04T06:10:33.837Z,2.17
2019-03-04T06:13:04.250Z,1.80
2019-03-04T06:15:34.697Z,1.83
2019-03-04T06:18:05.323Z,1.47
2019-03-04T06:20:35.878Z,1.80
2019-03-04T06:23:06.365Z,1.77
2019-03-04T06:25:36.803Z,1.63
2019-03-04T06:28:07.308Z,1.70
2019-03-04T06:30:37.942Z,1.53
2019-03-04T06:33:08.851Z,1.60
2019-03-04T06:35:39.306Z,1.60
2019-03-04T06:38:10.313Z,1.60
2019-03-04T06:40:41.153Z,1.90
2019-03-04T06:43:11.588Z,1.87
2019-03-04T06:45:42.053Z,1.80
2019-03-04T06:48:12.472Z,1.50
2019-03-04T06:50:50.153Z,1.50
2019-03-04T06:53:33.999Z,1.80
2019-03-04T06:56:08.345Z,2.90
2019-03-04T06:58:42.317Z,1.33
2019-03-04T07:01:20.238Z,1.30
2019-03-04T07:04:17.688Z,1.40
2019-03-04T07:06:48.393Z,1.40
2019-03-04T07:09:20.146Z,1.13
2019-03-04T07:11:51.756Z,1.50
2019-03-04T07:14:22.916Z,1.70
2019-03-04T07:16:53.760Z,1.40
2019-03-04T07:19:26.190Z,1.40
2019-03-04T07:21:56.648Z,1.60
2019-03-04T07:24:27.108Z,1.50
2019-03-04T07:26:57.590Z,1.97
2019-03-04T07:29:28.046Z,1.90
2019-03-04T07:31:58.627Z,1.90
2019-03-04T07:34:30.263Z,1.70
2019-03-04T07:37:00.891Z,1.50
2019-03-04T07:39:31.429Z,1.90
2019-03-04T07:42:01.887Z,1.80
2019-03-04T07:44:32.695Z,1.70
2019-03-04T07:47:03.569Z,2.00
2019-03-04T07:49:35.334Z,1.90
2019-03-04T07:52:05.915Z,1.77
2019-03-04T07:54:37.462Z,1.70
2019-03-04T07:57:08.198Z,1.70
2019-03-04T07:59:38.724Z,1.90
2019-03-04T08:02:09.730Z,1.82
2019-03-04T08:04:40.186Z,2.20
2019-03-04T08:07:42.379Z,1.77
2019-03-04T08:10:48.741Z,1.80
2019-03-04T08:13:29.025Z,1.90
2019-03-04T08:16:00.020Z,1.57
2019-03-04T08:18:30.470Z,1.80
2019-03-04T08:21:00.935Z,1.60
2019-03-04T08:23:31.573Z,1.80
2019-03-04T08:26:02.056Z,1.83
2019-03-04T08:28:32.612Z,1.90
2019-03-04T08:31:03.296Z,1.83
2019-03-04T08:33:33.786Z,1.77
2019-03-04T08:36:04.675Z,2.17
2019-03-04T08:38:35.184Z,1.70
2019-03-04T08:41:05.688Z,1.90
2019-03-04T08:43:36.132Z,1.50
2019-03-04T08:46:07.842Z,2.03
2019-03-04T08:48:38.610Z,1.87
2019-03-04T08:51:09.132Z,2.00
2019-03-04T08:53:39.590Z,1.90
2019-03-04T08:56:12.251Z,1.70
2019-03-04T08:58:42.259Z,1.83
2019-03-04T09:01:12.704Z,1.80
2019-03-04T09:03:43.209Z,2.03
2019-03-04T09:06:13.661Z,1.93
2019-03-04T09:08:44.183Z,2.00
2019-03-04T09:11:14.707Z,1.63
2019-03-04T09:13:45.257Z,1.30
2019-03-04T09:16:15.714Z,1.70
2019-03-04T09:18:47.153Z,1.50
2019-03-04T09:21:17.741Z,1.50
2019-03-04T09:23:50.135Z,1.60
2019-03-04T09:26:20.577Z,1.53
2019-03-04T09:28:51.330Z,1.73
2019-03-04T09:31:21.968Z,1.30
2019-03-04T09:33:52.520Z,1.57
2019-03-04T09:36:23.119Z,1.30
2019-03-04T09:38:53.645Z,1.33
2019-03-04T09:41:24.183Z,1.10
2019-03-04T09:43:54.706Z,1.57
2019-03-04T09:46:25.309Z,1.10
2019-03-04T09:48:55.773Z,0.83
2019-03-04T09:51:26.277Z,1.10
2019-03-04T09:53:56.775Z,0.90
2019-03-04T09:56:27.253Z,1.30
2019-03-04T09:58:57.846Z,0.80
2019-03-04T10:02:04.314Z,0.70
2019-03-04T10:05:35.130Z,1.03
2019-03-04T10:08:16.070Z,0.70
2019-03-04T10:11:24.628Z,0.50
2019-03-04T10:14:32.514Z,0.40
2019-03-04T10:17:37.500Z,0.60
2019-03-04T10:21:16.487Z,0.60
2019-03-04T10:24:09.009Z,0.67
2019-03-04T10:27:12.209Z,0.50
2019-03-04T10:30:13.067Z,0.70
2019-03-04T10:33:36.795Z,0.85
2019-03-04T10:36:49.986Z,0.70
2019-03-04T10:39:46.021Z,0.80
2019-03-04T10:42:54.670Z,0.70
2019-03-04T10:45:45.721Z,0.90
2019-03-04T10:48:35.089Z,0.60
2019-03-04T10:51:06.035Z,0.90
2019-03-04T10:53:36.492Z,0.60
2019-03-04T10:56:07.261Z,1.00
2019-03-04T10:58:37.740Z,0.90
2019-03-04T11:01:08.338Z,0.53
2019-03-04T11:03:38.865Z,0.83
2019-03-04T11:06:09.513Z,0.80
2019-03-04T11:08:40.120Z,0.60
2019-03-04T11:11:10.694Z,0.83
2019-03-04T11:13:41.461Z,0.90
2019-03-04T11:16:12.049Z,0.80
2019-03-04T11:18:42.800Z,1.00
2019-03-04T11:21:14.754Z,0.70
2019-03-04T11:23:45.333Z,0.60
2019-03-04T11:26:15.786Z,0.70
2019-03-04T11:28:46.244Z,0.70
2019-03-04T11:31:17.066Z,0.77
2019-03-04T11:33:47.613Z,0.60
2019-03-04T11:36:18.210Z,0.60
2019-03-04T11:38:51.802Z,0.70
2019-03-04T11:41:23.725Z,0.70
2019-03-04T11:43:54.201Z,0.80
2019-03-04T11:46:25.065Z,0.60
2019-03-04T11:48:55.521Z,0.80
2019-03-04T11:51:25.994Z,0.80
2019-03-04T11:53:56.431Z,0.93
2019-03-04T11:56:26.945Z,0.90
2019-03-04T11:58:58.547Z,0.90
2019-03-04T12:01:49.573Z,0.70
2019-03-04T12:04:20.370Z,0.73
2019-03-04T12:06:50.961Z,0.83
2019-03-04T12:09:21.866Z,0.77
2019-03-04T12:11:52.710Z,0.73
2019-03-04T12:14:23.342Z,0.87
2019-03-04T12:16:53.855Z,0.70
2019-03-04T12:19:28.825Z,0.60
2019-03-04T12:22:01.502Z,0.90
2019-03-04T12:24:33.058Z,0.70
2019-03-04T12:27:03.601Z,0.87
2019-03-04T12:29:34.052Z,0.70
2019-03-04T12:32:08.693Z,0.63
2019-03-04T12:34:39.183Z,0.60
2019-03-04T12:37:09.668Z,0.60
2019-03-04T12:39:40.381Z,0.70
2019-03-04T12:42:11.004Z,0.87
2019-03-04T12:44:41.434Z,0.70
2019-03-04T12:47:11.869Z,0.60
2019-03-04T12:49:42.388Z,0.80
2019-03-04T12:52:13.944Z,0.53
2019-03-04T12:54:44.387Z,0.87
2019-03-04T12:57:14.893Z,0.80
2019-03-04T12:59:45.393Z,0.70
2019-03-04T13:02:15.877Z,0.60
2019-03-04T13:04:46.429Z,0.60
2019-03-04T13:07:17.104Z,0.90
2019-03-04T13:09:47.589Z,0.73
2019-03-04T13:12:18.199Z,0.87
2019-03-04T13:14:48.685Z,0.63
2019-03-04T13:17:19.157Z,0.77
2019-03-04T13:19:49.613Z,0.90
2019-03-04T13:22:20.138Z,0.93
2019-03-04T13:24:50.644Z,0.63
2019-03-04T13:27:24.025Z,0.67
2019-03-04T13:29:53.361Z,1.10
2019-03-04T13:32:23.809Z,0.90
2019-03-04T13:34:54.255Z,1.53
2019-03-04T13:37:24.689Z,0.83
2019-03-04T13:39:55.138Z,1.20
2019-03-04T13:42:25.613Z,1.30
2019-03-04T13:44:56.133Z,1.00
2019-03-04T13:47:26.587Z,1.27
2019-03-04T13:49:57.020Z,1.10
2019-03-04T13:52:27.462Z,1.10
2019-03-04T13:54:57.957Z,1.30
2019-03-04T13:57:28.427Z,1.00
2019-03-04T13:59:59.890Z,0.93
2019-03-04T14:02:30.338Z,1.07
2019-03-04T14:05:00.804Z,0.70
2019-03-04T14:07:31.609Z,1.00
2019-03-04T14:10:02.073Z,1.17
2019-03-04T14:12:32.604Z,1.10
2019-03-04T14:15:03.133Z,1.10
2019-03-04T14:17:33.635Z,1.20
2019-03-04T14:20:04.668Z,1.20
2019-03-04T14:22:40.303Z,1.10
2019-03-04T14:25:08.541Z,1.30
2019-03-04T14:27:39.370Z,1.00
2019-03-04T14:30:13.067Z,1.20
2019-03-04T14:32:43.885Z,1.30
2019-03-04T14:35:14.356Z,1.37
2019-03-04T14:37:44.940Z,1.00
2019-03-04T14:40:15.982Z,1.00
2019-03-04T14:42:47.875Z,1.20
2019-03-04T14:45:20.660Z,1.27
2019-03-04T14:47:51.203Z,1.40
2019-03-04T14:50:21.860Z,1.23
2019-03-04T14:52:52.516Z,1.00
2019-03-04T14:55:23.039Z,1.20
2019-03-04T14:57:53.982Z,1.30
2019-03-04T15:00:29.798Z,1.17
2019-03-04T15:03:00.329Z,1.20
2019-03-04T15:05:30.769Z,1.20
2019-03-04T15:08:01.276Z,1.23
2019-03-04T15:10:31.763Z,1.57
2019-03-04T15:13:02.281Z,0.90
2019-03-04T15:15:32.779Z,1.00
2019-03-04T15:18:04.296Z,1.00
2019-03-04T15:20:35.558Z,1.10
2019-03-04T15:23:06.287Z,1.30
2019-03-04T15:25:36.845Z,1.10
2019-03-04T15:28:12.982Z,0.77
2019-03-04T15:30:44.231Z,0.80
2019-03-04T15:33:18.385Z,0.97
2019-03-04T15:35:47.366Z,0.97
2019-03-04T15:38:20.283Z,0.90
2019-03-04T15:40:50.817Z,0.93
2019-03-04T15:43:21.334Z,1.00
2019-03-04T15:45:52.919Z,0.83
2019-03-04T15:48:24.909Z,1.00
2019-03-04T15:50:55.868Z,0.80
2019-03-04T15:53:26.536Z,1.20
2019-03-04T15:55:57.131Z,0.80
2019-03-04T15:58:29.130Z,0.70
2019-03-04T16:01:00.117Z,0.67
2019-03-04T16:03:30.747Z,0.70
2019-03-04T16:06:01.248Z,0.83
2019-03-04T16:08:31.708Z,0.60
2019-03-04T16:11:02.208Z,0.70
2019-03-04T16:13:32.832Z,0.50
2019-03-04T16:16:03.295Z,0.70
2019-03-04T16:18:33.952Z,0.70
2019-03-04T16:21:05.506Z,0.73
2019-03-04T16:23:35.945Z,0.50
2019-03-04T16:26:12.325Z,0.50
2019-03-04T16:28:43.449Z,0.70
2019-03-04T16:31:13.887Z,0.60
2019-03-04T16:33:44.387Z,1.23
2019-03-04T16:36:16.156Z,0.60
2019-03-04T16:38:46.625Z,0.80
2019-03-04T16:41:17.081Z,0.70
2019-03-04T16:43:47.705Z,0.60
2019-03-04T16:46:18.245Z,0.70
2019-03-04T16:48:48.689Z,1.00
2019-03-04T16:51:19.197Z,0.80
2019-03-04T16:53:49.706Z,1.00
2019-03-04T16:56:20.132Z,0.80
2019-03-04T16:58:50.572Z,0.77
2019-03-04T17:01:22.089Z,0.70
2019-03-04T17:03:52.564Z,0.90
2019-03-04T17:06:23.331Z,1.00
2019-03-04T17:08:53.831Z,0.83
2019-03-04T17:11:24.313Z,0.80
2019-03-04T17:13:56.745Z,1.00
2019-03-04T17:16:27.259Z,1.07
2019-03-04T17:19:00.342Z,0.80
2019-03-04T17:21:30.793Z,1.10
2019-03-04T17:24:01.541Z,1.30
2019-03-04T17:26:33.335Z,0.93
2019-03-04T17:29:03.986Z,1.10
2019-03-04T17:31:34.506Z,0.90
2019-03-04T17:34:04.964Z,1.27
2019-03-04T17:36:35.811Z,1.10
2019-03-04T17:39:07.673Z,0.80
2019-03-04T17:41:42.517Z,1.27
2019-03-04T17:44:17.410Z,1.30
2019-03-04T17:46:47.881Z,1.07
2019-03-04T17:49:18.349Z,1.00
2019-03-04T17:51:48.849Z,1.00
2019-03-04T17:54:21.309Z,1.20
2019-03-04T17:56:52.284Z,0.90
2019-03-04T17:59:22.752Z,0.93
2019-03-04T18:01:53.304Z,0.70
2019-03-04T18:04:23.841Z,0.80
2019-03-04T18:06:54.549Z,0.93
2019-03-04T18:09:26.163Z,0.93
2019-03-04T18:11:56.731Z,0.80
2019-03-04T18:14:27.215Z,0.70
2019-03-04T18:16:57.723Z,0.73
2019-03-04T18:19:28.365Z,0.70
2019-03-04T18:21:59.838Z,0.70
2019-03-04T18:24:30.949Z,0.60
2019-03-04T18:27:05.438Z,0.80
2019-03-04T18:30:25.970Z,0.77
2019-03-04T18:33:32.546Z,0.90
2019-03-04T18:36:40.940Z,0.93
2019-03-04T18:39:44.858Z,0.87
2019-03-04T18:43:01.367Z,1.07
2019-03-04T18:45:54.239Z,0.93
2019-03-04T18:48:39.653Z,0.97
2019-03-04T18:51:10.207Z,0.90
2019-03-04T18:53:40.723Z,0.90
2019-03-04T18:56:11.518Z,0.90
2019-03-04T18:58:41.973Z,0.90
2019-03-04T19:01:14.144Z,0.80
2019-03-04T19:03:44.642Z,1.10
2019-03-04T19:06:15.362Z,1.07
2019-03-04T19:08:45.820Z,0.90
2019-03-04T19:11:17.684Z,1.00
2019-03-04T19:13:48.217Z,1.00
2019-03-04T19:16:18.783Z,1.00
2019-03-04T19:18:49.272Z,0.83
2019-03-04T19:21:19.854Z,0.90
2019-03-04T19:23:50.581Z,0.80
2019-03-04T19:26:22.509Z,0.90
2019-03-04T19:28:53.125Z,0.73
2019-03-04T19:31:24.024Z,1.10
2019-03-04T19:33:54.661Z,1.20
2019-03-04T19:36:25.253Z,1.17
2019-03-04T19:38:55.932Z,0.90
2019-03-04T19:41:28.202Z,0.90
2019-03-04T19:43:58.709Z,1.20
2019-03-04T19:46:29.214Z,0.77
2019-03-04T19:48:59.798Z,1.17
2019-03-04T19:51:30.518Z,1.00
2019-03-04T19:54:01.044Z,1.43
2019-03-04T19:56:31.908Z,1.13
2019-03-04T19:59:02.417Z,1.07
2019-03-04T20:01:32.907Z,1.07
2019-03-04T20:04:03.423Z,1.50
2019-03-04T20:06:34.059Z,0.80
2019-03-04T20:09:11.109Z,1.20
2019-03-04T20:11:43.263Z,1.10
2019-03-04T20:14:13.775Z,1.20
2019-03-04T20:16:44.457Z,1.10
2019-03-04T20:19:14.968Z,0.90
2019-03-04T20:21:45.731Z,0.90
2019-03-04T20:24:17.504Z,0.87
2019-03-04T20:26:48.017Z,1.00
2019-03-04T20:29:18.991Z,0.93
2019-03-04T20:31:49.483Z,1.27
2019-03-04T20:34:20.236Z,0.80
2019-03-04T20:36:50.751Z,1.10
2019-03-04T20:39:21.313Z,0.93
2019-03-04T20:41:51.945Z,1.10
2019-03-04T20:44:22.552Z,1.03
2019-03-04T20:46:53.392Z,1.30
2019-03-04T20:49:23.960Z,1.00
2019-03-04T20:51:54.919Z,1.20
2019-03-04T20:54:25.848Z,0.93
2019-03-04T20:56:56.332Z,1.60
2019-03-04T20:59:26.848Z,1.07
2019-03-04T21:01:57.653Z,1.07
2019-03-04T21:04:28.253Z,1.20
2019-03-04T21:06:58.875Z,0.80
2019-03-04T21:09:29.365Z,0.70
2019-03-04T21:12:00.094Z,0.80
2019-03-04T21:14:30.978Z,0.90
2019-03-04T21:17:01.654Z,1.13
2019-03-04T21:19:32.248Z,1.03
2019-03-04T21:22:02.885Z,1.00
2019-03-04T21:24:33.439Z,1.00
2019-03-04T21:27:04.025Z,1.20
2019-03-04T21:30:07.664Z,1.13
2019-03-04T21:33:15.380Z,1.27
2019-03-04T21:36:20.197Z,1.20
2019-03-04T21:38:53.575Z,1.30
2019-03-04T21:41:38.391Z,1.10
2019-03-04T21:44:40.933Z,1.00
2019-03-04T21:47:16.368Z,1.00
2019-03-04T21:49:50.192Z,1.23
2019-03-04T21:53:05.107Z,1.00
2019-03-04T21:56:31.639Z,0.90
2019-03-04T21:59:02.354Z,0.70
2019-03-04T22:01:40.479Z,1.00
